createdAt,value
2018-02-20T00:02:18.613Z,25.70
2018-02-20T00:07:20.192Z,25.20
2018-02-20T00:12:22.533Z,26.03
2018-02-20T00:17:24.098Z,28.57
2018-02-20T00:22:26.432Z,27.37
2018-02-20T00:27:28.037Z,25.73
2018-02-20T00:32:29.383Z,26.80
2018-02-20T00:37:30.954Z,25.47
2018-02-20T00:42:32.531Z,27.17
2018-02-20T00:47:34.045Z,26.10
2018-02-20T00:52:35.652Z,26.40
2018-02-20T00:57:37.186Z,25.20
2018-02-20T01:02:38.738Z,26.23
2018-02-20T01:07:40.251Z,26.60
2018-02-20T01:12:42.531Z,25.03
2018-02-20T01:17:43.980Z,25.57
2018-02-20T01:22:45.499Z,23.90
2018-02-20T01:27:46.933Z,27.63
2018-02-20T01:32:49.230Z,27.47
2018-02-20T01:37:50.733Z,26.00
2018-02-20T01:42:52.309Z,25.97
2018-02-20T01:47:53.876Z,28.60
2018-02-20T01:52:55.282Z,26.30
2018-02-20T01:57:56.739Z,28.57
2018-02-20T02:02:58.295Z,29.30
2018-02-20T02:08:00.565Z,28.70
2018-02-20T02:13:01.951Z,27.07
2018-02-20T02:18:03.525Z,29.20
2018-02-20T02:23:04.912Z,28.90
2018-02-20T02:28:06.360Z,26.93
2018-02-20T02:33:07.889Z,27.20
2018-02-20T02:38:10.112Z,28.33
2018-02-20T02:43:11.665Z,28.50
2018-02-20T02:48:13.087Z,26.20
2018-02-20T02:53:23.090Z,26.87
2018-02-20T02:58:25.361Z,26.60
2018-02-20T03:03:26.895Z,27.30
2018-02-20T03:08:28.329Z,25.27
2018-02-20T03:13:29.885Z,26.30
2018-02-20T03:18:31.461Z,27.23
2018-02-20T03:23:33.768Z,25.40
2018-02-20T03:28:35.278Z,25.20
2018-02-20T03:33:37.413Z,25.23
2018-02-20T03:38:38.841Z,26.10
2018-02-20T03:43:40.167Z,26.97
2018-02-20T03:48:42.381Z,27.53
2018-02-20T03:53:44.504Z,27.87
2018-02-20T03:58:45.954Z,27.53
2018-02-20T04:03:47.357Z,27.37
2018-02-20T04:08:49.500Z,27.70
2018-02-20T04:13:50.932Z,26.80
2018-02-20T04:18:52.376Z,25.70
2018-02-20T04:23:53.958Z,26.33
2018-02-20T04:28:56.191Z,26.37
2018-02-20T04:33:57.765Z,27.57
2018-02-20T04:38:59.245Z,26.93
2018-02-20T04:44:01.543Z,27.00
2018-02-20T04:49:03.891Z,26.37
2018-02-20T04:54:05.428Z,26.60
2018-02-20T04:59:06.978Z,26.03
2018-02-20T05:04:08.542Z,24.50
2018-02-20T05:09:10.026Z,25.00
2018-02-20T05:14:11.595Z,24.67
2018-02-20T05:19:13.150Z,25.00
2018-02-20T05:24:14.632Z,25.80
2018-02-20T05:29:16.947Z,26.70
2018-02-20T05:34:19.307Z,24.90
2018-02-20T05:39:20.844Z,28.30
2018-02-20T05:44:23.211Z,27.67
2018-02-20T05:49:25.855Z,27.33
2018-02-20T05:54:27.420Z,27.50
2018-02-20T05:59:28.966Z,26.80
2018-02-20T06:04:31.371Z,27.13
2018-02-20T06:09:32.921Z,27.87
2018-02-20T06:14:35.102Z,29.13
2018-02-20T06:19:38.998Z,28.67
2018-02-20T06:24:41.001Z,27.73
2018-02-20T06:29:42.567Z,28.53
2018-02-20T06:34:44.096Z,28.07
2018-02-20T06:39:45.690Z,37.80
2018-02-20T06:44:47.260Z,32.63
2018-02-20T06:49:48.801Z,29.00
2018-02-20T06:54:50.417Z,29.70
2018-02-20T06:59:52.735Z,29.90
2018-02-20T07:04:54.252Z,27.93
2018-02-20T07:09:56.717Z,28.37
2018-02-20T07:14:58.300Z,28.97
2018-02-20T07:19:59.867Z,31.60
2018-02-20T07:25:01.355Z,30.23
2018-02-20T07:30:02.795Z,31.50
2018-02-20T07:35:04.801Z,29.00
2018-02-20T07:40:06.987Z,28.70
2018-02-20T07:45:08.560Z,33.70
2018-02-20T07:50:10.124Z,31.37
2018-02-20T07:55:11.702Z,30.20
2018-02-20T08:00:13.267Z,32.70
2018-02-20T08:05:14.806Z,30.00
2018-02-20T08:10:17.119Z,30.60
2018-02-20T08:15:18.861Z,32.30
2018-02-20T08:20:20.394Z,38.17
2018-02-20T08:25:21.947Z,36.20
2018-02-20T08:30:23.415Z,33.13
2018-02-20T08:35:24.779Z,29.33
2018-02-20T08:40:26.954Z,30.83
2018-02-20T08:45:28.313Z,30.00
2018-02-20T08:50:29.886Z,31.87
2018-02-20T08:55:32.154Z,30.40
2018-02-20T09:00:33.708Z,30.67
2018-02-20T09:05:35.262Z,30.30
2018-02-20T09:10:36.823Z,27.80
2018-02-20T09:15:38.208Z,24.07
2018-02-20T09:20:39.551Z,26.80
2018-02-20T09:25:41.649Z,25.80
2018-02-20T09:30:43.711Z,23.90
2018-02-20T09:35:45.102Z,23.20
2018-02-20T09:40:46.447Z,23.10
2018-02-20T09:45:48.523Z,24.97
2018-02-20T09:50:49.963Z,23.07
2018-02-20T09:55:51.330Z,24.30
2018-02-20T10:00:52.724Z,22.17
2018-02-20T10:05:54.865Z,22.40
2018-02-20T10:10:56.243Z,21.13
2018-02-20T10:15:57.619Z,21.07
2018-02-20T10:20:59.736Z,21.43
2018-02-20T10:26:01.849Z,22.83
2018-02-20T10:31:03.202Z,21.70
2018-02-20T10:36:04.564Z,21.97
2018-02-20T10:41:05.920Z,22.07
2018-02-20T10:46:07.273Z,21.60
2018-02-20T10:51:08.624Z,19.40
2018-02-20T10:56:09.959Z,19.50
2018-02-20T11:01:11.299Z,19.73
2018-02-20T11:06:12.740Z,20.50
2018-02-20T11:11:14.129Z,19.43
2018-02-20T11:16:15.510Z,18.53
2018-02-20T11:21:16.916Z,19.20
2018-02-20T11:26:18.996Z,21.13
2018-02-20T11:31:20.323Z,19.97
2018-02-20T11:36:21.655Z,19.60
2018-02-20T11:41:23.030Z,20.83
2018-02-20T11:46:24.387Z,19.37
2018-02-20T11:51:26.500Z,19.40
2018-02-20T11:56:28.583Z,20.00
2018-02-20T12:01:29.972Z,19.30
2018-02-20T12:06:31.344Z,18.23
2018-02-20T12:11:32.716Z,19.73
2018-02-20T12:16:34.232Z,18.80
2018-02-20T12:21:35.588Z,18.53
2018-02-20T12:26:36.978Z,20.50
2018-02-20T12:31:38.307Z,19.60
2018-02-20T12:36:39.652Z,19.90
2018-02-20T12:41:41.084Z,19.90
2018-02-20T12:46:42.402Z,19.90
2018-02-20T12:51:43.773Z,18.23
2018-02-20T12:56:45.123Z,21.73
2018-02-20T13:01:46.468Z,20.90
2018-02-20T13:06:48.547Z,21.60
2018-02-20T13:11:49.922Z,22.40
2018-02-20T13:16:51.304Z,22.20
2018-02-20T13:21:52.671Z,24.00
2018-02-20T13:26:54.044Z,24.47
2018-02-20T13:31:55.402Z,27.43
2018-02-20T13:36:56.766Z,29.07
2018-02-20T13:41:58.133Z,27.17
2018-02-20T13:46:59.522Z,29.20
2018-02-20T13:52:00.924Z,26.83
2018-02-20T13:57:02.280Z,28.20
2018-02-20T14:02:04.395Z,29.50
2018-02-20T14:07:06.504Z,30.77
2018-02-20T14:12:08.621Z,29.13
2018-02-20T14:17:09.948Z,32.17
2018-02-20T14:22:11.317Z,31.40
2018-02-20T14:27:12.716Z,31.40
2018-02-20T14:32:14.065Z,30.53
2018-02-20T14:37:15.447Z,27.50
2018-02-20T14:42:17.598Z,28.43
2018-02-20T14:47:18.980Z,28.70
2018-02-20T14:52:20.364Z,27.70
2018-02-20T14:57:21.822Z,26.90
2018-02-20T15:02:23.205Z,26.97
2018-02-20T15:07:25.390Z,28.07
2018-02-20T15:12:26.765Z,28.70
2018-02-20T15:17:28.173Z,29.37
2018-02-20T15:22:29.561Z,28.57
2018-02-20T15:27:30.955Z,28.73
2018-02-20T15:32:32.377Z,28.50
2018-02-20T15:37:33.791Z,30.27
2018-02-20T15:42:35.954Z,30.20
2018-02-20T15:47:37.331Z,33.90
2018-02-20T15:52:38.759Z,29.80
2018-02-20T15:57:40.156Z,29.70
2018-02-20T16:02:41.570Z,36.20
2018-02-20T16:07:42.909Z,30.27
2018-02-20T16:12:44.291Z,28.60
2018-02-20T16:17:45.644Z,28.20
2018-02-20T16:22:47.052Z,31.87
2018-02-20T16:27:48.415Z,48.27
2018-02-20T16:32:50.532Z,79.07
2018-02-20T16:37:51.904Z,41.90
2018-02-20T16:42:54.049Z,34.60
2018-02-20T16:47:55.410Z,40.00
2018-02-20T16:52:56.751Z,47.13
2018-02-20T16:57:58.251Z,35.63
2018-02-20T17:02:59.635Z,35.10
2018-02-20T17:08:00.980Z,38.17
2018-02-20T17:13:03.095Z,32.80
2018-02-20T17:18:04.481Z,52.67
2018-02-20T17:23:05.905Z,36.63
2018-02-20T17:28:07.365Z,30.00
2018-02-20T17:33:08.788Z,30.80
2018-02-20T17:38:10.177Z,30.70
2018-02-20T17:43:11.543Z,35.67
2018-02-20T17:48:12.960Z,41.10
2018-02-20T17:53:14.325Z,29.27
2018-02-20T17:58:15.695Z,27.40
2018-02-20T18:03:17.797Z,31.10
2018-02-20T18:08:19.263Z,32.57
2018-02-20T18:13:20.576Z,31.23
2018-02-20T18:18:22.644Z,32.70
2018-02-20T18:23:24.010Z,31.37
2018-02-20T18:28:25.375Z,30.53
2018-02-20T18:33:26.779Z,32.20
2018-02-20T18:38:28.196Z,33.63
2018-02-20T18:43:30.605Z,32.63
2018-02-20T18:48:32.033Z,32.30
2018-02-20T18:53:33.482Z,35.23
2018-02-20T18:58:34.874Z,34.30
2018-02-20T19:03:36.221Z,34.07
2018-02-20T19:08:37.619Z,37.30
2018-02-20T19:13:39.812Z,37.57
2018-02-20T19:18:41.537Z,36.67
2018-02-20T19:23:42.942Z,37.67
2018-02-20T19:28:44.280Z,34.67
2018-02-20T19:33:45.714Z,35.47
2018-02-20T19:38:47.123Z,34.90
2018-02-20T19:43:48.526Z,36.30
2018-02-20T19:48:49.956Z,36.63
2018-02-20T19:53:51.336Z,36.07
2018-02-20T19:58:52.838Z,37.70
2018-02-20T20:03:54.213Z,37.20
2018-02-20T20:08:55.680Z,36.83
2018-02-20T20:13:57.040Z,38.03
2018-02-20T20:18:59.121Z,38.63
2018-02-20T20:24:00.451Z,36.87
2018-02-20T20:29:01.863Z,39.70
2018-02-20T20:34:03.332Z,39.67
2018-02-20T20:39:04.744Z,39.50
2018-02-20T20:44:06.184Z,38.70
2018-02-20T20:49:07.527Z,39.87
2018-02-20T20:54:08.892Z,39.17
2018-02-20T20:59:10.364Z,35.90
2018-02-20T21:04:11.784Z,39.87
2018-02-20T21:09:13.296Z,42.20
2018-02-20T21:14:14.667Z,37.30
2018-02-20T21:19:16.013Z,38.20
2018-02-20T21:24:17.632Z,41.63
2018-02-20T21:29:19.238Z,38.23
2018-02-20T21:34:20.816Z,37.70
2018-02-20T21:39:22.919Z,36.60
2018-02-20T21:44:24.301Z,35.57
2018-02-20T21:49:26.417Z,36.80
2018-02-20T21:54:27.844Z,33.50
2018-02-20T21:59:29.286Z,33.07
2018-02-20T22:04:30.620Z,33.80
2018-02-20T22:09:31.976Z,32.43
2018-02-20T22:14:33.532Z,33.20
2018-02-20T22:19:34.871Z,33.40
2018-02-20T22:24:36.988Z,30.50
2018-02-20T22:29:39.052Z,31.00
2018-02-20T22:34:40.402Z,32.43
2018-02-20T22:39:41.986Z,32.37
2018-02-20T22:44:43.345Z,32.90
2018-02-20T22:49:44.673Z,30.93
2018-02-20T22:54:46.049Z,31.90
2018-02-20T22:59:47.519Z,32.37
2018-02-20T23:04:48.860Z,29.47
2018-02-20T23:09:50.225Z,30.90
2018-02-20T23:14:52.292Z,31.13
2018-02-20T23:19:53.647Z,36.87
2018-02-20T23:24:55.014Z,30.10
2018-02-20T23:29:56.356Z,31.17
2018-02-20T23:34:57.704Z,31.97
2018-02-20T23:39:59.170Z,32.87
2018-02-20T23:45:01.235Z,31.73
2018-02-20T23:50:02.581Z,32.90
2018-02-20T23:55:04.024Z,32.80
